SBCR/CMG METAR and TAF weather

Enter ICAO airport designator
Station Type Date Time Source
SBCR METAR 2022/05/23 15:00 UTC NOAA

SBCR 231500Z 04007KT 010V090 CAVOK 29/15 Q1015


Station Type Date Time Source
SBCR Decoded METAR 2022/05/23 15:00 UTC NOAA

Corumba, Brazil (SBCR) 19-05S 057-30W
May 23, 2022 - 11:00 AM EDT / 2022.05.23 1500 UTC
Wind: from the NE (040 degrees) at 8 MPH (7 KT) (direction variable):0
Visibility: greater than 7 mile(s):0
Temperature: 84 F (29 C)
Dew Point: 59 F (15 C)
Relative Humidity: 42%
Pressure (altimeter): 29.97 in. Hg (1015 hPa)
ob: SBCR 231500Z 04007KT 010V090 CAVOK 29/15 Q1015
cycle: 15

Station Type Date Time Source
SBCR TAF 2022/05/23 12:47 UTC NOAA

TAF SBCR 231000Z 2312/2412 07004KT CAVOK TX30/2318Z TN12/2408Z
BECMG 2312/2314 07009KT
BECMG 2316/2318 05006KT
BECMG 2318/2320 02006KT
BECMG 2320/2322 06006KT
RMK PHH

Example: see airport list